sensor_id;sensor_type;location;lat;lon;timestamp;P1;durP1;ratioP1;P2;durP2;ratioP2
12048;SDS011;6085;49.452;8.502;2023-12-22T00:04:00;0.30;;;0.30;;
12048;SDS011;6085;49.452;8.502;2023-12-22T00:08:02;0.20;;;0.20;;
12048;SDS011;6085;49.452;8.502;2023-12-22T00:12:04;0.52;;;0.20;;
12048;SDS011;6085;49.452;8.502;2023-12-22T00:16:08;0.20;;;0.20;;
12048;SDS011;6085;49.452;8.502;2023-12-22T00:20:10;0.20;;;0.20;;
12048;SDS011;6085;49.452;8.502;2023-12-22T00:24:14;0.20;;;0.20;;
12048;SDS011;6085;49.452;8.502;2023-12-22T00:28:16;0.20;;;0.20;;
12048;SDS011;6085;49.452;8.502;2023-12-22T00:32:19;0.20;;;0.20;;
12048;SDS011;6085;49.452;8.502;2023-12-22T00:36:21;0.22;;;0.22;;
12048;SDS011;6085;49.452;8.502;2023-12-22T00:40:24;0.15;;;0.15;;
12048;SDS011;6085;49.452;8.502;2023-12-22T00:44:26;0.25;;;0.25;;
12048;SDS011;6085;49.452;8.502;2023-12-22T00:48:31;0.20;;;0.20;;
12048;SDS011;6085;49.452;8.502;2023-12-22T00:52:32;0.20;;;0.20;;
12048;SDS011;6085;49.452;8.502;2023-12-22T00:56:34;0.17;;;0.17;;
12048;SDS011;6085;49.452;8.502;2023-12-22T01:00:36;0.10;;;0.10;;
12048;SDS011;6085;49.452;8.502;2023-12-22T01:04:39;0.20;;;0.20;;
12048;SDS011;6085;49.452;8.502;2023-12-22T01:08:41;0.30;;;0.30;;
12048;SDS011;6085;49.452;8.502;2023-12-22T01:12:43;0.25;;;0.25;;
12048;SDS011;6085;49.452;8.502;2023-12-22T01:16:45;0.20;;;0.20;;
12048;SDS011;6085;49.452;8.502;2023-12-22T01:20:48;0.20;;;0.20;;
12048;SDS011;6085;49.452;8.502;2023-12-22T01:24:50;0.20;;;0.20;;
12048;SDS011;6085;49.452;8.502;2023-12-22T01:28:52;0.30;;;0.30;;
12048;SDS011;6085;49.452;8.502;2023-12-22T01:32:54;0.30;;;0.30;;
12048;SDS011;6085;49.452;8.502;2023-12-22T01:36:57;1.10;;;0.32;;
12048;SDS011;6085;49.452;8.502;2023-12-22T01:40:59;0.30;;;0.30;;
12048;SDS011;6085;49.452;8.502;2023-12-22T01:45:01;0.20;;;0.20;;
12048;SDS011;6085;49.452;8.502;2023-12-22T01:49:03;0.20;;;0.20;;
12048;SDS011;6085;49.452;8.502;2023-12-22T01:53:06;0.20;;;0.20;;
12048;SDS011;6085;49.452;8.502;2023-12-22T01:57:08;0.20;;;0.20;;
12048;SDS011;6085;49.452;8.502;2023-12-22T02:01:13;0.20;;;0.20;;
12048;SDS011;6085;49.452;8.502;2023-12-22T02:05:16;0.52;;;0.52;;
12048;SDS011;6085;49.452;8.502;2023-12-22T02:09:19;0.47;;;0.47;;
12048;SDS011;6085;49.452;8.502;2023-12-22T02:13:21;2.15;;;0.60;;
12048;SDS011;6085;49.452;8.502;2023-12-22T02:17:23;0.28;;;0.28;;
12048;SDS011;6085;49.452;8.502;2023-12-22T02:21:30;0.68;;;0.60;;
12048;SDS011;6085;49.452;8.502;2023-12-22T02:25:33;1.85;;;0.52;;
12048;SDS011;6085;49.452;8.502;2023-12-22T02:29:36;0.88;;;0.80;;
12048;SDS011;6085;49.452;8.502;2023-12-22T02:33:41;0.32;;;0.32;;
12048;SDS011;6085;49.452;8.502;2023-12-22T02:37:45;0.60;;;0.60;;
12048;SDS011;6085;49.452;8.502;2023-12-22T02:41:50;2.95;;;0.70;;
12048;SDS011;6085;49.452;8.502;2023-12-22T02:45:52;1.25;;;0.57;;
12048;SDS011;6085;49.452;8.502;2023-12-22T02:49:54;0.47;;;0.47;;
12048;SDS011;6085;49.452;8.502;2023-12-22T02:53:56;1.90;;;1.02;;
12048;SDS011;6085;49.452;8.502;2023-12-22T02:57:59;0.93;;;0.63;;
12048;SDS011;6085;49.452;8.502;2023-12-22T03:02:01;0.30;;;0.30;;
12048;SDS011;6085;49.452;8.502;2023-12-22T03:06:03;0.40;;;0.40;;
12048;SDS011;6085;49.452;8.502;2023-12-22T03:10:05;0.50;;;0.50;;
12048;SDS011;6085;49.452;8.502;2023-12-22T03:14:09;1.08;;;0.77;;
12048;SDS011;6085;49.452;8.502;2023-12-22T03:18:11;1.30;;;0.60;;
12048;SDS011;6085;49.452;8.502;2023-12-22T03:22:13;0.60;;;0.60;;
12048;SDS011;6085;49.452;8.502;2023-12-22T03:26:14;2.70;;;0.50;;
12048;SDS011;6085;49.452;8.502;2023-12-22T03:30:18;1.00;;;0.90;;
12048;SDS011;6085;49.452;8.502;2023-12-22T03:34:19;2.03;;;0.80;;
12048;SDS011;6085;49.452;8.502;2023-12-22T03:38:21;0.50;;;0.50;;
12048;SDS011;6085;49.452;8.502;2023-12-22T03:42:23;1.45;;;0.60;;
12048;SDS011;6085;49.452;8.502;2023-12-22T03:46:26;2.58;;;0.68;;
12048;SDS011;6085;49.452;8.502;2023-12-22T03:50:29;1.85;;;0.60;;
12048;SDS011;6085;49.452;8.502;2023-12-22T03:54:30;0.65;;;0.50;;
12048;SDS011;6085;49.452;8.502;2023-12-22T03:58:32;0.43;;;0.43;;
12048;SDS011;6085;49.452;8.502;2023-12-22T04:02:35;1.70;;;0.55;;
12048;SDS011;6085;49.452;8.502;2023-12-22T04:06:38;0.40;;;0.40;;
12048;SDS011;6085;49.452;8.502;2023-12-22T04:10:40;1.35;;;0.55;;
12048;SDS011;6085;49.452;8.502;2023-12-22T04:14:43;0.20;;;0.20;;
12048;SDS011;6085;49.452;8.502;2023-12-22T04:18:46;0.63;;;0.60;;
12048;SDS011;6085;49.452;8.502;2023-12-22T04:22:48;4.18;;;0.65;;
12048;SDS011;6085;49.452;8.502;2023-12-22T04:26:50;0.47;;;0.35;;
12048;SDS011;6085;49.452;8.502;2023-12-22T04:30:52;0.68;;;0.57;;
12048;SDS011;6085;49.452;8.502;2023-12-22T04:34:55;0.60;;;0.50;;
12048;SDS011;6085;49.452;8.502;2023-12-22T04:38:57;1.15;;;0.70;;
12048;SDS011;6085;49.452;8.502;2023-12-22T04:42:59;0.47;;;0.47;;
12048;SDS011;6085;49.452;8.502;2023-12-22T04:47:00;0.35;;;0.32;;
12048;SDS011;6085;49.452;8.502;2023-12-22T04:51:04;0.40;;;0.40;;
12048;SDS011;6085;49.452;8.502;2023-12-22T04:55:06;1.80;;;0.60;;
12048;SDS011;6085;49.452;8.502;2023-12-22T04:59:08;0.95;;;0.43;;
12048;SDS011;6085;49.452;8.502;2023-12-22T05:03:11;0.50;;;0.50;;
12048;SDS011;6085;49.452;8.502;2023-12-22T05:07:14;0.73;;;0.30;;
12048;SDS011;6085;49.452;8.502;2023-12-22T05:11:16;2.47;;;0.43;;
12048;SDS011;6085;49.452;8.502;2023-12-22T05:15:18;0.30;;;0.30;;
12048;SDS011;6085;49.452;8.502;2023-12-22T05:19:20;0.40;;;0.32;;
12048;SDS011;6085;49.452;8.502;2023-12-22T05:23:23;0.40;;;0.40;;
12048;SDS011;6085;49.452;8.502;2023-12-22T05:27:25;3.13;;;0.65;;
12048;SDS011;6085;49.452;8.502;2023-12-22T05:31:27;0.90;;;0.73;;
12048;SDS011;6085;49.452;8.502;2023-12-22T05:35:31;0.38;;;0.38;;
12048;SDS011;6085;49.452;8.502;2023-12-22T05:39:34;0.52;;;0.52;;
12048;SDS011;6085;49.452;8.502;2023-12-22T05:43:36;0.35;;;0.35;;
12048;SDS011;6085;49.452;8.502;2023-12-22T05:47:38;2.00;;;0.63;;
12048;SDS011;6085;49.452;8.502;2023-12-22T05:51:39;1.25;;;0.98;;
12048;SDS011;6085;49.452;8.502;2023-12-22T05:55:43;0.70;;;0.70;;
12048;SDS011;6085;49.452;8.502;2023-12-22T05:59:45;0.93;;;0.57;;
12048;SDS011;6085;49.452;8.502;2023-12-22T06:03:46;0.65;;;0.65;;
12048;SDS011;6085;49.452;8.502;2023-12-22T06:07:48;0.40;;;0.40;;
12048;SDS011;6085;49.452;8.502;2023-12-22T06:11:52;1.83;;;0.50;;
12048;SDS011;6085;49.452;8.502;2023-12-22T06:15:54;1.48;;;0.77;;
12048;SDS011;6085;49.452;8.502;2023-12-22T06:19:56;0.60;;;0.60;;
12048;SDS011;6085;49.452;8.502;2023-12-22T06:23:59;3.53;;;0.63;;
12048;SDS011;6085;49.452;8.502;2023-12-22T06:28:02;2.72;;;0.82;;
12048;SDS011;6085;49.452;8.502;2023-12-22T06:32:05;1.58;;;0.93;;
12048;SDS011;6085;49.452;8.502;2023-12-22T06:36:07;1.80;;;0.70;;
12048;SDS011;6085;49.452;8.502;2023-12-22T06:40:09;6.60;;;1.15;;
12048;SDS011;6085;49.452;8.502;2023-12-22T06:44:13;2.00;;;0.82;;
12048;SDS011;6085;49.452;8.502;2023-12-22T06:48:15;0.70;;;0.70;;
12048;SDS011;6085;49.452;8.502;2023-12-22T06:52:17;0.95;;;0.77;;
12048;SDS011;6085;49.452;8.502;2023-12-22T06:56:19;0.68;;;0.68;;
12048;SDS011;6085;49.452;8.502;2023-12-22T07:00:23;1.73;;;0.85;;
12048;SDS011;6085;49.452;8.502;2023-12-22T07:04:25;1.55;;;1.02;;
12048;SDS011;6085;49.452;8.502;2023-12-22T07:08:27;3.92;;;0.77;;
12048;SDS011;6085;49.452;8.502;2023-12-22T07:12:28;1.10;;;1.00;;
12048;SDS011;6085;49.452;8.502;2023-12-22T07:16:32;6.10;;;1.40;;
12048;SDS011;6085;49.452;8.502;2023-12-22T07:20:34;1.25;;;0.85;;
12048;SDS011;6085;49.452;8.502;2023-12-22T07:24:35;2.72;;;0.82;;
12048;SDS011;6085;49.452;8.502;2023-12-22T07:28:37;0.85;;;0.60;;
12048;SDS011;6085;49.452;8.502;2023-12-22T07:32:40;1.00;;;1.00;;
12048;SDS011;6085;49.452;8.502;2023-12-22T07:36:44;0.43;;;0.43;;
12048;SDS011;6085;49.452;8.502;2023-12-22T07:40:46;1.65;;;0.55;;
12048;SDS011;6085;49.452;8.502;2023-12-22T07:44:47;0.57;;;0.55;;
12048;SDS011;6085;49.452;8.502;2023-12-22T07:48:51;1.65;;;0.82;;
12048;SDS011;6085;49.452;8.502;2023-12-22T07:52:52;0.65;;;0.50;;
12048;SDS011;6085;49.452;8.502;2023-12-22T07:56:54;0.80;;;0.50;;
12048;SDS011;6085;49.452;8.502;2023-12-22T08:00:56;0.25;;;0.25;;
12048;SDS011;6085;49.452;8.502;2023-12-22T08:05:00;1.10;;;0.30;;
12048;SDS011;6085;49.452;8.502;2023-12-22T08:09:01;0.30;;;0.30;;
12048;SDS011;6085;49.452;8.502;2023-12-22T08:13:04;0.50;;;0.50;;
12048;SDS011;6085;49.452;8.502;2023-12-22T08:17:06;0.40;;;0.40;;
12048;SDS011;6085;49.452;8.502;2023-12-22T08:21:09;0.30;;;0.30;;
12048;SDS011;6085;49.452;8.502;2023-12-22T08:25:11;0.45;;;0.45;;
12048;SDS011;6085;49.452;8.502;2023-12-22T08:29:13;0.45;;;0.43;;
12048;SDS011;6085;49.452;8.502;2023-12-22T08:33:15;0.60;;;0.60;;
12048;SDS011;6085;49.452;8.502;2023-12-22T08:37:19;1.38;;;1.00;;
12048;SDS011;6085;49.452;8.502;2023-12-22T08:41:21;0.40;;;0.40;;
12048;SDS011;6085;49.452;8.502;2023-12-22T08:45:23;1.85;;;0.70;;
12048;SDS011;6085;49.452;8.502;2023-12-22T08:49:26;1.70;;;0.90;;
12048;SDS011;6085;49.452;8.502;2023-12-22T08:53:29;0.98;;;0.98;;
12048;SDS011;6085;49.452;8.502;2023-12-22T08:57:33;1.73;;;0.50;;
12048;SDS011;6085;49.452;8.502;2023-12-22T09:01:35;0.70;;;0.63;;
12048;SDS011;6085;49.452;8.502;2023-12-22T09:05:37;0.98;;;0.80;;
12048;SDS011;6085;49.452;8.502;2023-12-22T09:09:40;2.30;;;1.17;;
12048;SDS011;6085;49.452;8.502;2023-12-22T09:13:43;1.92;;;0.60;;
12048;SDS011;6085;49.452;8.502;2023-12-22T09:17:45;2.97;;;1.05;;
12048;SDS011;6085;49.452;8.502;2023-12-22T09:21:46;1.02;;;1.02;;
12048;SDS011;6085;49.452;8.502;2023-12-22T09:25:50;3.80;;;0.80;;
12048;SDS011;6085;49.452;8.502;2023-12-22T09:29:52;2.65;;;1.00;;
12048;SDS011;6085;49.452;8.502;2023-12-22T09:33:54;2.92;;;1.02;;
12048;SDS011;6085;49.452;8.502;2023-12-22T09:37:57;1.98;;;0.93;;
12048;SDS011;6085;49.452;8.502;2023-12-22T09:42:00;0.80;;;0.73;;
12048;SDS011;6085;49.452;8.502;2023-12-22T09:46:02;4.47;;;1.33;;
12048;SDS011;6085;49.452;8.502;2023-12-22T09:50:05;3.67;;;1.52;;
12048;SDS011;6085;49.452;8.502;2023-12-22T09:54:09;5.25;;;1.48;;
12048;SDS011;6085;49.452;8.502;2023-12-22T09:58:13;1.67;;;1.17;;
12048;SDS011;6085;49.452;8.502;2023-12-22T10:02:16;1.30;;;1.20;;
12048;SDS011;6085;49.452;8.502;2023-12-22T10:06:18;2.20;;;0.95;;
12048;SDS011;6085;49.452;8.502;2023-12-22T10:10:20;1.73;;;0.80;;
12048;SDS011;6085;49.452;8.502;2023-12-22T10:14:24;1.38;;;1.27;;
12048;SDS011;6085;49.452;8.502;2023-12-22T10:18:28;3.20;;;1.05;;
12048;SDS011;6085;49.452;8.502;2023-12-22T10:22:30;1.65;;;1.05;;
12048;SDS011;6085;49.452;8.502;2023-12-22T10:26:32;7.55;;;1.40;;
12048;SDS011;6085;49.452;8.502;2023-12-22T10:30:35;2.50;;;1.55;;
12048;SDS011;6085;49.452;8.502;2023-12-22T10:34:38;5.80;;;1.58;;
12048;SDS011;6085;49.452;8.502;2023-12-22T10:38:40;2.90;;;1.42;;
12048;SDS011;6085;49.452;8.502;2023-12-22T10:42:43;3.55;;;1.70;;
12048;SDS011;6085;49.452;8.502;2023-12-22T10:46:46;2.30;;;1.48;;
12048;SDS011;6085;49.452;8.502;2023-12-22T10:50:48;1.48;;;1.27;;
12048;SDS011;6085;49.452;8.502;2023-12-22T10:54:50;2.17;;;1.15;;
12048;SDS011;6085;49.452;8.502;2023-12-22T10:58:52;2.17;;;1.15;;
12048;SDS011;6085;49.452;8.502;2023-12-22T11:02:57;1.88;;;1.33;;
12048;SDS011;6085;49.452;8.502;2023-12-22T11:07:03;1.70;;;1.23;;
12048;SDS011;6085;49.452;8.502;2023-12-22T11:11:08;1.90;;;1.02;;
12048;SDS011;6085;49.452;8.502;2023-12-22T11:15:15;4.55;;;1.30;;
12048;SDS011;6085;49.452;8.502;2023-12-22T11:19:20;1.30;;;1.02;;
12048;SDS011;6085;49.452;8.502;2023-12-22T11:23:23;3.28;;;1.13;;
12048;SDS011;6085;49.452;8.502;2023-12-22T11:27:26;5.55;;;1.40;;
12048;SDS011;6085;49.452;8.502;2023-12-22T11:31:31;1.25;;;1.15;;
12048;SDS011;6085;49.452;8.502;2023-12-22T11:35:35;0.55;;;0.55;;
12048;SDS011;6085;49.452;8.502;2023-12-22T11:39:39;1.80;;;1.38;;
12048;SDS011;6085;49.452;8.502;2023-12-22T11:43:41;1.33;;;0.70;;
12048;SDS011;6085;49.452;8.502;2023-12-22T11:47:45;1.70;;;0.60;;
12048;SDS011;6085;49.452;8.502;2023-12-22T11:51:49;1.90;;;1.00;;
12048;SDS011;6085;49.452;8.502;2023-12-22T11:55:57;1.58;;;1.38;;
12048;SDS011;6085;49.452;8.502;2023-12-22T12:00:06;2.22;;;0.40;;
12048;SDS011;6085;49.452;8.502;2023-12-22T12:04:10;1.60;;;0.65;;
12048;SDS011;6085;49.452;8.502;2023-12-22T12:08:14;1.10;;;0.75;;
12048;SDS011;6085;49.452;8.502;2023-12-22T12:12:16;0.57;;;0.50;;
12048;SDS011;6085;49.452;8.502;2023-12-22T12:16:19;0.57;;;0.40;;
12048;SDS011;6085;49.452;8.502;2023-12-22T12:20:22;1.10;;;0.70;;
12048;SDS011;6085;49.452;8.502;2023-12-22T12:24:26;0.65;;;0.60;;
12048;SDS011;6085;49.452;8.502;2023-12-22T12:28:30;0.98;;;0.45;;
12048;SDS011;6085;49.452;8.502;2023-12-22T12:32:33;0.85;;;0.57;;
12048;SDS011;6085;49.452;8.502;2023-12-22T12:36:34;0.75;;;0.52;;
12048;SDS011;6085;49.452;8.502;2023-12-22T12:40:38;1.45;;;0.50;;
12048;SDS011;6085;49.452;8.502;2023-12-22T12:44:41;0.55;;;0.22;;
12048;SDS011;6085;49.452;8.502;2023-12-22T12:48:45;0.65;;;0.32;;
12048;SDS011;6085;49.452;8.502;2023-12-22T12:52:47;1.17;;;0.60;;
12048;SDS011;6085;49.452;8.502;2023-12-22T12:56:51;0.17;;;0.17;;
12048;SDS011;6085;49.452;8.502;2023-12-22T13:00:53;0.17;;;0.17;;
12048;SDS011;6085;49.452;8.502;2023-12-22T13:05:04;0.38;;;0.30;;
12048;SDS011;6085;49.452;8.502;2023-12-22T13:09:09;0.30;;;0.30;;
12048;SDS011;6085;49.452;8.502;2023-12-22T13:13:14;0.32;;;0.30;;
12048;SDS011;6085;49.452;8.502;2023-12-22T13:17:17;0.40;;;0.40;;
12048;SDS011;6085;49.452;8.502;2023-12-22T13:21:18;0.20;;;0.20;;
12048;SDS011;6085;49.452;8.502;2023-12-22T13:25:21;0.40;;;0.40;;
12048;SDS011;6085;49.452;8.502;2023-12-22T13:29:24;0.40;;;0.40;;
12048;SDS011;6085;49.452;8.502;2023-12-22T13:33:26;0.20;;;0.20;;
12048;SDS011;6085;49.452;8.502;2023-12-22T13:37:29;0.70;;;0.70;;
12048;SDS011;6085;49.452;8.502;2023-12-22T13:41:31;1.42;;;0.30;;
12048;SDS011;6085;49.452;8.502;2023-12-22T13:45:35;0.20;;;0.20;;
12048;SDS011;6085;49.452;8.502;2023-12-22T13:49:37;0.75;;;0.70;;
12048;SDS011;6085;49.452;8.502;2023-12-22T13:53:48;0.80;;;0.25;;
12048;SDS011;6085;49.452;8.502;2023-12-22T13:57:58;0.32;;;0.32;;
12048;SDS011;6085;49.452;8.502;2023-12-22T14:02:02;0.68;;;0.30;;
12048;SDS011;6085;49.452;8.502;2023-12-22T14:06:04;0.10;;;0.10;;
12048;SDS011;6085;49.452;8.502;2023-12-22T14:10:09;0.25;;;0.25;;
12048;SDS011;6085;49.452;8.502;2023-12-22T14:14:12;0.40;;;0.40;;
12048;SDS011;6085;49.452;8.502;2023-12-22T14:18:16;0.30;;;0.30;;
12048;SDS011;6085;49.452;8.502;2023-12-22T14:22:18;0.10;;;0.10;;
12048;SDS011;6085;49.452;8.502;2023-12-22T14:26:20;0.20;;;0.20;;
12048;SDS011;6085;49.452;8.502;2023-12-22T14:30:22;0.38;;;0.38;;
12048;SDS011;6085;49.452;8.502;2023-12-22T14:34:25;0.77;;;0.60;;
12048;SDS011;6085;49.452;8.502;2023-12-22T14:38:28;0.38;;;0.38;;
12048;SDS011;6085;49.452;8.502;2023-12-22T14:42:29;0.30;;;0.30;;
12048;SDS011;6085;49.452;8.502;2023-12-22T14:46:32;0.73;;;0.45;;
12048;SDS011;6085;49.452;8.502;2023-12-22T14:50:35;0.20;;;0.20;;
12048;SDS011;6085;49.452;8.502;2023-12-22T14:54:37;0.20;;;0.20;;
12048;SDS011;6085;49.452;8.502;2023-12-22T14:58:39;0.20;;;0.20;;
12048;SDS011;6085;49.452;8.502;2023-12-22T15:02:41;0.43;;;0.40;;
12048;SDS011;6085;49.452;8.502;2023-12-22T15:06:45;0.40;;;0.40;;
12048;SDS011;6085;49.452;8.502;2023-12-22T15:10:47;0.32;;;0.32;;
12048;SDS011;6085;49.452;8.502;2023-12-22T15:14:49;0.60;;;0.60;;
12048;SDS011;6085;49.452;8.502;2023-12-22T15:18:51;0.50;;;0.50;;
12048;SDS011;6085;49.452;8.502;2023-12-22T15:22:55;0.40;;;0.40;;
12048;SDS011;6085;49.452;8.502;2023-12-22T15:26:56;0.50;;;0.50;;
12048;SDS011;6085;49.452;8.502;2023-12-22T15:30:58;0.70;;;0.70;;
12048;SDS011;6085;49.452;8.502;2023-12-22T15:35:00;0.85;;;0.28;;
12048;SDS011;6085;49.452;8.502;2023-12-22T15:39:03;0.13;;;0.13;;
12048;SDS011;6085;49.452;8.502;2023-12-22T15:43:05;1.65;;;0.80;;
12048;SDS011;6085;49.452;8.502;2023-12-22T15:47:08;0.32;;;0.32;;
12048;SDS011;6085;49.452;8.502;2023-12-22T15:51:10;0.70;;;0.55;;
12048;SDS011;6085;49.452;8.502;2023-12-22T15:55:15;0.85;;;0.25;;
12048;SDS011;6085;49.452;8.502;2023-12-22T15:59:17;0.20;;;0.20;;
12048;SDS011;6085;49.452;8.502;2023-12-22T16:03:19;0.30;;;0.30;;
12048;SDS011;6085;49.452;8.502;2023-12-22T16:07:20;0.40;;;0.40;;
12048;SDS011;6085;49.452;8.502;2023-12-22T16:11:25;0.75;;;0.40;;
12048;SDS011;6085;49.452;8.502;2023-12-22T16:15:27;0.50;;;0.50;;
12048;SDS011;6085;49.452;8.502;2023-12-22T16:19:28;0.20;;;0.20;;
12048;SDS011;6085;49.452;8.502;2023-12-22T16:23:30;0.40;;;0.40;;
12048;SDS011;6085;49.452;8.502;2023-12-22T16:27:33;0.20;;;0.20;;
12048;SDS011;6085;49.452;8.502;2023-12-22T16:31:37;0.40;;;0.40;;
12048;SDS011;6085;49.452;8.502;2023-12-22T16:35:39;0.22;;;0.22;;
12048;SDS011;6085;49.452;8.502;2023-12-22T16:39:47;0.30;;;0.30;;
12048;SDS011;6085;49.452;8.502;2023-12-22T16:43:52;0.98;;;0.60;;
12048;SDS011;6085;49.452;8.502;2023-12-22T16:47:54;0.93;;;0.70;;
12048;SDS011;6085;49.452;8.502;2023-12-22T16:51:56;0.20;;;0.20;;
12048;SDS011;6085;49.452;8.502;2023-12-22T16:55:57;1.00;;;0.38;;
12048;SDS011;6085;49.452;8.502;2023-12-22T17:00:01;0.20;;;0.20;;
12048;SDS011;6085;49.452;8.502;2023-12-22T17:04:03;0.17;;;0.17;;
12048;SDS011;6085;49.452;8.502;2023-12-22T17:08:06;0.20;;;0.20;;
12048;SDS011;6085;49.452;8.502;2023-12-22T17:12:08;0.40;;;0.40;;
12048;SDS011;6085;49.452;8.502;2023-12-22T17:16:11;0.35;;;0.30;;
12048;SDS011;6085;49.452;8.502;2023-12-22T17:20:13;0.28;;;0.28;;
12048;SDS011;6085;49.452;8.502;2023-12-22T17:24:16;0.38;;;0.38;;
12048;SDS011;6085;49.452;8.502;2023-12-22T17:28:17;0.30;;;0.30;;
12048;SDS011;6085;49.452;8.502;2023-12-22T17:32:20;0.30;;;0.30;;
12048;SDS011;6085;49.452;8.502;2023-12-22T17:36:22;0.20;;;0.20;;
12048;SDS011;6085;49.452;8.502;2023-12-22T17:40:25;0.20;;;0.20;;
12048;SDS011;6085;49.452;8.502;2023-12-22T17:44:27;0.30;;;0.30;;
12048;SDS011;6085;49.452;8.502;2023-12-22T17:48:30;0.73;;;0.52;;
12048;SDS011;6085;49.452;8.502;2023-12-22T17:52:32;0.30;;;0.30;;
12048;SDS011;6085;49.452;8.502;2023-12-22T17:56:34;0.30;;;0.30;;
12048;SDS011;6085;49.452;8.502;2023-12-22T18:00:36;0.25;;;0.25;;
12048;SDS011;6085;49.452;8.502;2023-12-22T18:04:39;0.40;;;0.40;;
12048;SDS011;6085;49.452;8.502;2023-12-22T18:08:41;0.25;;;0.25;;
12048;SDS011;6085;49.452;8.502;2023-12-22T18:12:43;0.57;;;0.40;;
12048;SDS011;6085;49.452;8.502;2023-12-22T18:16:45;0.38;;;0.38;;
12048;SDS011;6085;49.452;8.502;2023-12-22T18:20:48;0.50;;;0.40;;
12048;SDS011;6085;49.452;8.502;2023-12-22T18:24:50;0.47;;;0.40;;
12048;SDS011;6085;49.452;8.502;2023-12-22T18:28:52;1.55;;;0.30;;
12048;SDS011;6085;49.452;8.502;2023-12-22T18:32:54;0.30;;;0.30;;
12048;SDS011;6085;49.452;8.502;2023-12-22T18:36:57;0.85;;;0.25;;
12048;SDS011;6085;49.452;8.502;2023-12-22T18:40:59;0.22;;;0.22;;
12048;SDS011;6085;49.452;8.502;2023-12-22T18:45:01;0.50;;;0.50;;
12048;SDS011;6085;49.452;8.502;2023-12-22T18:49:03;0.38;;;0.38;;
12048;SDS011;6085;49.452;8.502;2023-12-22T18:53:12;0.28;;;0.28;;
12048;SDS011;6085;49.452;8.502;2023-12-22T18:57:14;0.40;;;0.40;;
12048;SDS011;6085;49.452;8.502;2023-12-22T19:01:16;0.82;;;0.45;;
12048;SDS011;6085;49.452;8.502;2023-12-22T19:05:18;0.40;;;0.30;;
12048;SDS011;6085;49.452;8.502;2023-12-22T19:09:22;0.30;;;0.30;;
12048;SDS011;6085;49.452;8.502;2023-12-22T19:13:23;0.50;;;0.40;;
12048;SDS011;6085;49.452;8.502;2023-12-22T19:17:25;0.40;;;0.40;;
12048;SDS011;6085;49.452;8.502;2023-12-22T19:21:27;0.38;;;0.38;;
12048;SDS011;6085;49.452;8.502;2023-12-22T19:25:31;1.45;;;0.45;;
12048;SDS011;6085;49.452;8.502;2023-12-22T19:29:33;0.40;;;0.40;;
12048;SDS011;6085;49.452;8.502;2023-12-22T19:33:35;0.57;;;0.43;;
12048;SDS011;6085;49.452;8.502;2023-12-22T19:37:37;0.43;;;0.43;;
12048;SDS011;6085;49.452;8.502;2023-12-22T19:41:40;0.30;;;0.30;;
12048;SDS011;6085;49.452;8.502;2023-12-22T19:45:42;0.30;;;0.30;;
12048;SDS011;6085;49.452;8.502;2023-12-22T19:49:44;0.30;;;0.30;;
12048;SDS011;6085;49.452;8.502;2023-12-22T19:53:46;0.20;;;0.20;;
12048;SDS011;6085;49.452;8.502;2023-12-22T19:57:50;0.20;;;0.20;;
12048;SDS011;6085;49.452;8.502;2023-12-22T20:01:51;0.30;;;0.30;;
12048;SDS011;6085;49.452;8.502;2023-12-22T20:05:54;0.30;;;0.22;;
12048;SDS011;6085;49.452;8.502;2023-12-22T20:09:56;0.20;;;0.20;;
12048;SDS011;6085;49.452;8.502;2023-12-22T20:13:59;0.85;;;0.40;;
12048;SDS011;6085;49.452;8.502;2023-12-22T20:18:01;0.20;;;0.20;;
12048;SDS011;6085;49.452;8.502;2023-12-22T20:22:06;0.25;;;0.25;;
12048;SDS011;6085;49.452;8.502;2023-12-22T20:26:08;0.52;;;0.52;;
12048;SDS011;6085;49.452;8.502;2023-12-22T20:30:13;0.57;;;0.55;;
12048;SDS011;6085;49.452;8.502;2023-12-22T20:34:15;1.67;;;0.88;;
12048;SDS011;6085;49.452;8.502;2023-12-22T20:38:17;0.68;;;0.68;;
12048;SDS011;6085;49.452;8.502;2023-12-22T20:42:19;0.70;;;0.47;;
12048;SDS011;6085;49.452;8.502;2023-12-22T20:46:23;1.43;;;0.83;;
12048;SDS011;6085;49.452;8.502;2023-12-22T20:50:24;0.32;;;0.32;;
12048;SDS011;6085;49.452;8.502;2023-12-22T20:54:27;1.52;;;0.80;;
12048;SDS011;6085;49.452;8.502;2023-12-22T20:58:29;0.45;;;0.45;;
12048;SDS011;6085;49.452;8.502;2023-12-22T21:02:32;0.52;;;0.52;;
12048;SDS011;6085;49.452;8.502;2023-12-22T21:06:34;0.30;;;0.30;;
12048;SDS011;6085;49.452;8.502;2023-12-22T21:10:36;0.57;;;0.57;;
12048;SDS011;6085;49.452;8.502;2023-12-22T21:14:39;0.43;;;0.32;;
12048;SDS011;6085;49.452;8.502;2023-12-22T21:18:42;0.40;;;0.30;;
12048;SDS011;6085;49.452;8.502;2023-12-22T21:22:45;0.22;;;0.22;;
12048;SDS011;6085;49.452;8.502;2023-12-22T21:26:47;0.30;;;0.30;;
12048;SDS011;6085;49.452;8.502;2023-12-22T21:30:50;0.63;;;0.47;;
12048;SDS011;6085;49.452;8.502;2023-12-22T21:34:54;0.30;;;0.30;;
12048;SDS011;6085;49.452;8.502;2023-12-22T21:38:56;0.63;;;0.52;;
12048;SDS011;6085;49.452;8.502;2023-12-22T21:42:57;1.25;;;0.50;;
12048;SDS011;6085;49.452;8.502;2023-12-22T21:47:00;1.25;;;0.82;;
12048;SDS011;6085;49.452;8.502;2023-12-22T21:51:04;2.05;;;0.40;;
12048;SDS011;6085;49.452;8.502;2023-12-22T21:55:06;0.70;;;0.70;;
12048;SDS011;6085;49.452;8.502;2023-12-22T21:59:09;0.30;;;0.30;;
12048;SDS011;6085;49.452;8.502;2023-12-22T22:03:11;0.30;;;0.30;;
12048;SDS011;6085;49.452;8.502;2023-12-22T22:07:15;0.30;;;0.30;;
12048;SDS011;6085;49.452;8.502;2023-12-22T22:11:17;0.60;;;0.32;;
12048;SDS011;6085;49.452;8.502;2023-12-22T22:15:19;0.22;;;0.22;;
12048;SDS011;6085;49.452;8.502;2023-12-22T22:19:21;0.40;;;0.32;;
12048;SDS011;6085;49.452;8.502;2023-12-22T22:23:24;0.40;;;0.40;;
12048;SDS011;6085;49.452;8.502;2023-12-22T22:27:26;3.50;;;0.70;;
12048;SDS011;6085;49.452;8.502;2023-12-22T22:31:28;0.47;;;0.47;;
12048;SDS011;6085;49.452;8.502;2023-12-22T22:35:30;1.58;;;0.57;;
12048;SDS011;6085;49.452;8.502;2023-12-22T22:39:33;1.00;;;0.40;;
12048;SDS011;6085;49.452;8.502;2023-12-22T22:43:36;1.65;;;0.40;;
12048;SDS011;6085;49.452;8.502;2023-12-22T22:47:38;2.60;;;0.50;;
12048;SDS011;6085;49.452;8.502;2023-12-22T22:51:40;1.48;;;0.55;;
12048;SDS011;6085;49.452;8.502;2023-12-22T22:55:43;0.32;;;0.32;;
12048;SDS011;6085;49.452;8.502;2023-12-22T22:59:45;0.75;;;0.40;;
12048;SDS011;6085;49.452;8.502;2023-12-22T23:03:47;1.58;;;0.52;;
12048;SDS011;6085;49.452;8.502;2023-12-22T23:07:49;0.50;;;0.50;;
12048;SDS011;6085;49.452;8.502;2023-12-22T23:11:52;0.40;;;0.30;;
12048;SDS011;6085;49.452;8.502;2023-12-22T23:15:54;0.20;;;0.20;;
12048;SDS011;6085;49.452;8.502;2023-12-22T23:19:57;0.30;;;0.30;;
12048;SDS011;6085;49.452;8.502;2023-12-22T23:23:59;0.30;;;0.30;;
12048;SDS011;6085;49.452;8.502;2023-12-22T23:28:07;0.60;;;0.25;;
12048;SDS011;6085;49.452;8.502;2023-12-22T23:32:09;0.63;;;0.30;;
12048;SDS011;6085;49.452;8.502;2023-12-22T23:36:11;0.60;;;0.40;;
12048;SDS011;6085;49.452;8.502;2023-12-22T23:40:13;0.30;;;0.30;;
12048;SDS011;6085;49.452;8.502;2023-12-22T23:44:16;0.50;;;0.50;;
12048;SDS011;6085;49.452;8.502;2023-12-22T23:48:18;0.25;;;0.25;;
12048;SDS011;6085;49.452;8.502;2023-12-22T23:52:20;1.42;;;0.95;;
12048;SDS011;6085;49.452;8.502;2023-12-22T23:56:22;0.20;;;0.20;;
